sensor_id;sensor_type;location;lat;lon;timestamp;temperature;humidity
56046;DHT22;41913;51.030;3.706;2023-04-24T00:01:14;18.60;85.20
56046;DHT22;41913;51.030;3.706;2023-04-24T00:03:40;18.60;85.10
56046;DHT22;41913;51.030;3.706;2023-04-24T00:06:06;18.60;85.20
56046;DHT22;41913;51.030;3.706;2023-04-24T00:08:34;18.60;85.10
56046;DHT22;41913;51.030;3.706;2023-04-24T00:11:00;18.60;85.20
56046;DHT22;41913;51.030;3.706;2023-04-24T00:13:26;18.60;85.10
56046;DHT22;41913;51.030;3.706;2023-04-24T00:15:54;18.60;85.10
56046;DHT22;41913;51.030;3.706;2023-04-24T00:18:20;18.60;85.10
56046;DHT22;41913;51.030;3.706;2023-04-24T00:20:46;18.60;85.10
56046;DHT22;41913;51.030;3.706;2023-04-24T00:23:12;18.60;85.10
56046;DHT22;41913;51.030;3.706;2023-04-24T00:25:38;18.60;85.60
56046;DHT22;41913;51.030;3.706;2023-04-24T00:28:04;18.60;85.00
56046;DHT22;41913;51.030;3.706;2023-04-24T00:30:30;18.60;85.00
56046;DHT22;41913;51.030;3.706;2023-04-24T00:32:55;18.60;85.00
56046;DHT22;41913;51.030;3.706;2023-04-24T00:35:21;18.60;85.00
56046;DHT22;41913;51.030;3.706;2023-04-24T00:37:47;18.60;85.00
56046;DHT22;41913;51.030;3.706;2023-04-24T00:40:14;18.60;85.00
56046;DHT22;41913;51.030;3.706;2023-04-24T00:42:40;18.60;85.00
56046;DHT22;41913;51.030;3.706;2023-04-24T00:45:06;18.60;85.00
56046;DHT22;41913;51.030;3.706;2023-04-24T00:47:36;18.60;85.00
56046;DHT22;41913;51.030;3.706;2023-04-24T00:50:03;18.60;85.00
56046;DHT22;41913;51.030;3.706;2023-04-24T00:52:29;18.60;85.00
56046;DHT22;41913;51.030;3.706;2023-04-24T00:54:56;18.60;84.90
56046;DHT22;41913;51.030;3.706;2023-04-24T00:57:22;18.60;84.90
56046;DHT22;41913;51.030;3.706;2023-04-24T00:59:49;18.60;84.90
56046;DHT22;41913;51.030;3.706;2023-04-24T01:02:15;18.50;84.80
56046;DHT22;41913;51.030;3.706;2023-04-24T01:04:42;18.60;84.90
56046;DHT22;41913;51.030;3.706;2023-04-24T01:07:08;18.60;84.90
56046;DHT22;41913;51.030;3.706;2023-04-24T01:09:38;18.60;84.80
56046;DHT22;41913;51.030;3.706;2023-04-24T01:12:05;18.60;84.80
56046;DHT22;41913;51.030;3.706;2023-04-24T01:14:33;18.50;84.70
56046;DHT22;41913;51.030;3.706;2023-04-24T01:16:59;18.50;84.70
56046;DHT22;41913;51.030;3.706;2023-04-24T01:19:25;18.50;84.70
56046;DHT22;41913;51.030;3.706;2023-04-24T01:21:53;18.50;84.70
56046;DHT22;41913;51.030;3.706;2023-04-24T01:24:19;18.50;84.70
56046;DHT22;41913;51.030;3.706;2023-04-24T01:26:46;18.50;84.80
56046;DHT22;41913;51.030;3.706;2023-04-24T01:29:13;18.50;84.70
56046;DHT22;41913;51.030;3.706;2023-04-24T01:31:39;18.50;84.80
56046;DHT22;41913;51.030;3.706;2023-04-24T01:34:05;18.50;84.70
56046;DHT22;41913;51.030;3.706;2023-04-24T01:36:32;18.50;84.70
56046;DHT22;41913;51.030;3.706;2023-04-24T01:38:58;18.50;84.70
56046;DHT22;41913;51.030;3.706;2023-04-24T01:41:25;18.50;84.70
56046;DHT22;41913;51.030;3.706;2023-04-24T01:43:51;18.50;84.70
56046;DHT22;41913;51.030;3.706;2023-04-24T01:46:17;18.50;84.70
56046;DHT22;41913;51.030;3.706;2023-04-24T01:48:42;18.50;84.60
56046;DHT22;41913;51.030;3.706;2023-04-24T01:51:09;18.50;84.60
56046;DHT22;41913;51.030;3.706;2023-04-24T01:53:36;18.50;84.60
56046;DHT22;41913;51.030;3.706;2023-04-24T01:56:03;18.50;84.60
56046;DHT22;41913;51.030;3.706;2023-04-24T01:58:29;18.50;84.60
56046;DHT22;41913;51.030;3.706;2023-04-24T02:00:59;18.50;84.60
56046;DHT22;41913;51.030;3.706;2023-04-24T02:03:26;18.50;84.60
56046;DHT22;41913;51.030;3.706;2023-04-24T02:05:52;18.50;84.60
56046;DHT22;41913;51.030;3.706;2023-04-24T02:08:17;18.50;84.50
56046;DHT22;41913;51.030;3.706;2023-04-24T02:10:43;18.50;84.50
56046;DHT22;41913;51.030;3.706;2023-04-24T02:13:09;18.50;84.50
56046;DHT22;41913;51.030;3.706;2023-04-24T02:15:35;18.50;84.50
56046;DHT22;41913;51.030;3.706;2023-04-24T02:18:01;18.50;84.50
56046;DHT22;41913;51.030;3.706;2023-04-24T02:20:28;18.50;84.50
56046;DHT22;41913;51.030;3.706;2023-04-24T02:22:54;18.50;84.40
56046;DHT22;41913;51.030;3.706;2023-04-24T02:25:20;18.50;84.40
56046;DHT22;41913;51.030;3.706;2023-04-24T02:27:46;18.50;84.40
56046;DHT22;41913;51.030;3.706;2023-04-24T02:30:12;18.50;84.40
56046;DHT22;41913;51.030;3.706;2023-04-24T02:32:38;18.50;84.70
56046;DHT22;41913;51.030;3.706;2023-04-24T02:35:04;18.50;84.40
56046;DHT22;41913;51.030;3.706;2023-04-24T02:37:30;18.50;84.40
56046;DHT22;41913;51.030;3.706;2023-04-24T02:39:56;18.50;84.40
56046;DHT22;41913;51.030;3.706;2023-04-24T02:42:21;18.50;84.40
56046;DHT22;41913;51.030;3.706;2023-04-24T02:44:47;18.50;84.40
56046;DHT22;41913;51.030;3.706;2023-04-24T02:47:13;18.50;84.40
56046;DHT22;41913;51.030;3.706;2023-04-24T02:49:38;18.50;84.30
56046;DHT22;41913;51.030;3.706;2023-04-24T02:52:04;18.50;84.40
56046;DHT22;41913;51.030;3.706;2023-04-24T02:54:30;18.50;84.30
56046;DHT22;41913;51.030;3.706;2023-04-24T02:56:55;18.50;84.30
56046;DHT22;41913;51.030;3.706;2023-04-24T02:59:22;18.50;84.40
56046;DHT22;41913;51.030;3.706;2023-04-24T03:01:47;18.50;84.40
56046;DHT22;41913;51.030;3.706;2023-04-24T03:04:13;18.50;84.40
56046;DHT22;41913;51.030;3.706;2023-04-24T03:06:40;18.50;84.40
56046;DHT22;41913;51.030;3.706;2023-04-24T03:09:05;18.50;84.30
56046;DHT22;41913;51.030;3.706;2023-04-24T03:11:31;18.50;84.40
56046;DHT22;41913;51.030;3.706;2023-04-24T03:13:57;18.40;84.30
56046;DHT22;41913;51.030;3.706;2023-04-24T03:16:23;18.50;84.40
56046;DHT22;41913;51.030;3.706;2023-04-24T03:18:49;18.40;84.30
56046;DHT22;41913;51.030;3.706;2023-04-24T03:21:15;18.50;84.40
56046;DHT22;41913;51.030;3.706;2023-04-24T03:23:41;18.40;84.30
56046;DHT22;41913;51.030;3.706;2023-04-24T03:26:06;18.50;84.40
56046;DHT22;41913;51.030;3.706;2023-04-24T03:28:32;18.40;84.30
56046;DHT22;41913;51.030;3.706;2023-04-24T03:30:58;18.40;84.40
56046;DHT22;41913;51.030;3.706;2023-04-24T03:33:23;18.40;84.30
56046;DHT22;41913;51.030;3.706;2023-04-24T03:35:49;18.40;84.40
56046;DHT22;41913;51.030;3.706;2023-04-24T03:38:15;18.50;84.40
56046;DHT22;41913;51.030;3.706;2023-04-24T03:40:40;18.40;84.40
56046;DHT22;41913;51.030;3.706;2023-04-24T03:43:06;18.40;84.40
56046;DHT22;41913;51.030;3.706;2023-04-24T03:45:32;18.40;84.40
56046;DHT22;41913;51.030;3.706;2023-04-24T03:47:57;18.40;84.40
56046;DHT22;41913;51.030;3.706;2023-04-24T03:50:23;18.40;84.40
56046;DHT22;41913;51.030;3.706;2023-04-24T03:52:49;18.40;84.40
56046;DHT22;41913;51.030;3.706;2023-04-24T03:55:15;18.40;84.40
56046;DHT22;41913;51.030;3.706;2023-04-24T03:57:41;18.40;84.40
56046;DHT22;41913;51.030;3.706;2023-04-24T04:00:07;18.40;84.40
56046;DHT22;41913;51.030;3.706;2023-04-24T04:02:34;18.40;84.40
56046;DHT22;41913;51.030;3.706;2023-04-24T04:05:00;18.40;84.50
56046;DHT22;41913;51.030;3.706;2023-04-24T04:07:25;18.40;84.40
56046;DHT22;41913;51.030;3.706;2023-04-24T04:09:51;18.40;84.40
56046;DHT22;41913;51.030;3.706;2023-04-24T04:12:18;18.40;84.40
56046;DHT22;41913;51.030;3.706;2023-04-24T04:14:43;18.40;84.40
56046;DHT22;41913;51.030;3.706;2023-04-24T04:17:10;18.40;84.50
56046;DHT22;41913;51.030;3.706;2023-04-24T04:19:36;18.40;84.40
56046;DHT22;41913;51.030;3.706;2023-04-24T04:22:03;18.40;84.50
56046;DHT22;41913;51.030;3.706;2023-04-24T04:24:29;18.40;84.50
56046;DHT22;41913;51.030;3.706;2023-04-24T04:26:55;18.40;84.50
56046;DHT22;41913;51.030;3.706;2023-04-24T04:29:22;18.40;84.50
56046;DHT22;41913;51.030;3.706;2023-04-24T04:31:49;18.40;84.50
56046;DHT22;41913;51.030;3.706;2023-04-24T04:34:15;18.40;84.50
56046;DHT22;41913;51.030;3.706;2023-04-24T04:36:42;18.40;84.50
56046;DHT22;41913;51.030;3.706;2023-04-24T04:39:09;18.40;84.50
56046;DHT22;41913;51.030;3.706;2023-04-24T04:41:34;18.40;84.40
56046;DHT22;41913;51.030;3.706;2023-04-24T04:44:01;18.40;84.50
56046;DHT22;41913;51.030;3.706;2023-04-24T04:46:30;18.40;84.40
56046;DHT22;41913;51.030;3.706;2023-04-24T04:48:58;18.40;84.40
56046;DHT22;41913;51.030;3.706;2023-04-24T04:51:25;18.40;84.50
56046;DHT22;41913;51.030;3.706;2023-04-24T04:53:51;18.40;84.40
56046;DHT22;41913;51.030;3.706;2023-04-24T04:56:17;18.40;84.40
56046;DHT22;41913;51.030;3.706;2023-04-24T04:58:43;18.40;84.40
56046;DHT22;41913;51.030;3.706;2023-04-24T05:01:09;18.40;84.40
56046;DHT22;41913;51.030;3.706;2023-04-24T05:03:35;18.30;84.30
56046;DHT22;41913;51.030;3.706;2023-04-24T05:06:01;18.40;84.40
56046;DHT22;41913;51.030;3.706;2023-04-24T05:08:27;18.30;84.30
56046;DHT22;41913;51.030;3.706;2023-04-24T05:10:54;18.30;84.30
56046;DHT22;41913;51.030;3.706;2023-04-24T05:13:20;18.30;84.30
56046;DHT22;41913;51.030;3.706;2023-04-24T05:15:46;18.30;84.30
56046;DHT22;41913;51.030;3.706;2023-04-24T05:18:11;18.30;84.30
56046;DHT22;41913;51.030;3.706;2023-04-24T05:20:39;18.30;84.30
56046;DHT22;41913;51.030;3.706;2023-04-24T05:23:05;18.30;84.30
56046;DHT22;41913;51.030;3.706;2023-04-24T05:25:31;18.30;84.30
56046;DHT22;41913;51.030;3.706;2023-04-24T05:28:01;18.30;84.30
56046;DHT22;41913;51.030;3.706;2023-04-24T05:30:27;18.30;84.30
56046;DHT22;41913;51.030;3.706;2023-04-24T05:32:52;18.30;84.30
56046;DHT22;41913;51.030;3.706;2023-04-24T05:35:18;18.40;84.40
56046;DHT22;41913;51.030;3.706;2023-04-24T05:37:45;18.40;84.50
56046;DHT22;41913;51.030;3.706;2023-04-24T05:40:11;18.50;85.20
56046;DHT22;41913;51.030;3.706;2023-04-24T05:42:37;18.60;86.10
56046;DHT22;41913;51.030;3.706;2023-04-24T05:45:03;18.60;86.60
56046;DHT22;41913;51.030;3.706;2023-04-24T05:47:30;18.70;87.10
56046;DHT22;41913;51.030;3.706;2023-04-24T05:49:56;18.70;87.40
56046;DHT22;41913;51.030;3.706;2023-04-24T05:52:22;18.70;87.50
56046;DHT22;41913;51.030;3.706;2023-04-24T05:54:48;18.70;87.70
56046;DHT22;41913;51.030;3.706;2023-04-24T05:57:14;18.80;87.90
56046;DHT22;41913;51.030;3.706;2023-04-24T05:59:40;18.80;88.00
56046;DHT22;41913;51.030;3.706;2023-04-24T06:02:07;18.80;88.00
56046;DHT22;41913;51.030;3.706;2023-04-24T06:04:34;18.80;88.10
56046;DHT22;41913;51.030;3.706;2023-04-24T06:07:02;18.80;88.30
56046;DHT22;41913;51.030;3.706;2023-04-24T06:09:28;18.80;88.30
56046;DHT22;41913;51.030;3.706;2023-04-24T06:11:54;18.80;88.40
56046;DHT22;41913;51.030;3.706;2023-04-24T06:14:21;18.70;88.40
56046;DHT22;41913;51.030;3.706;2023-04-24T06:16:47;18.80;88.50
56046;DHT22;41913;51.030;3.706;2023-04-24T06:19:13;18.80;88.60
56046;DHT22;41913;51.030;3.706;2023-04-24T06:21:39;18.80;88.60
56046;DHT22;41913;51.030;3.706;2023-04-24T06:24:04;18.80;88.60
56046;DHT22;41913;51.030;3.706;2023-04-24T06:26:30;18.80;88.60
56046;DHT22;41913;51.030;3.706;2023-04-24T06:28:56;18.80;88.60
56046;DHT22;41913;51.030;3.706;2023-04-24T06:31:24;18.70;88.50
56046;DHT22;41913;51.030;3.706;2023-04-24T06:33:49;18.80;88.50
56046;DHT22;41913;51.030;3.706;2023-04-24T06:36:15;18.70;88.40
56046;DHT22;41913;51.030;3.706;2023-04-24T06:38:43;18.70;88.40
56046;DHT22;41913;51.030;3.706;2023-04-24T06:41:11;18.70;88.30
56046;DHT22;41913;51.030;3.706;2023-04-24T06:43:36;18.70;88.30
56046;DHT22;41913;51.030;3.706;2023-04-24T06:46:02;18.70;88.30
56046;DHT22;41913;51.030;3.706;2023-04-24T06:48:29;18.70;88.20
56046;DHT22;41913;51.030;3.706;2023-04-24T06:50:55;18.70;88.20
56046;DHT22;41913;51.030;3.706;2023-04-24T06:53:21;18.70;88.10
56046;DHT22;41913;51.030;3.706;2023-04-24T06:55:47;18.70;88.10
56046;DHT22;41913;51.030;3.706;2023-04-24T06:58:14;18.70;88.10
56046;DHT22;41913;51.030;3.706;2023-04-24T07:00:40;18.70;88.10
56046;DHT22;41913;51.030;3.706;2023-04-24T07:03:06;18.70;88.00
56046;DHT22;41913;51.030;3.706;2023-04-24T07:05:32;18.70;88.00
56046;DHT22;41913;51.030;3.706;2023-04-24T07:08:01;18.70;88.00
56046;DHT22;41913;51.030;3.706;2023-04-24T07:10:27;18.70;87.90
56046;DHT22;41913;51.030;3.706;2023-04-24T07:12:55;18.60;87.90
56046;DHT22;41913;51.030;3.706;2023-04-24T07:15:23;18.70;87.90
56046;DHT22;41913;51.030;3.706;2023-04-24T07:17:49;18.60;87.80
56046;DHT22;41913;51.030;3.706;2023-04-24T07:20:16;18.60;87.80
56046;DHT22;41913;51.030;3.706;2023-04-24T07:22:42;18.60;87.80
56046;DHT22;41913;51.030;3.706;2023-04-24T07:25:08;18.60;87.80
56046;DHT22;41913;51.030;3.706;2023-04-24T07:27:34;18.60;87.80
56046;DHT22;41913;51.030;3.706;2023-04-24T07:30:02;18.60;87.70
56046;DHT22;41913;51.030;3.706;2023-04-24T07:32:28;18.60;87.60
56046;DHT22;41913;51.030;3.706;2023-04-24T07:34:53;18.60;87.60
56046;DHT22;41913;51.030;3.706;2023-04-24T07:37:19;18.60;87.60
56046;DHT22;41913;51.030;3.706;2023-04-24T07:39:45;18.60;87.50
56046;DHT22;41913;51.030;3.706;2023-04-24T07:42:11;18.60;87.40
56046;DHT22;41913;51.030;3.706;2023-04-24T07:44:37;18.60;87.30
56046;DHT22;41913;51.030;3.706;2023-04-24T07:47:02;18.60;87.20
56046;DHT22;41913;51.030;3.706;2023-04-24T07:49:28;18.60;87.10
56046;DHT22;41913;51.030;3.706;2023-04-24T07:51:54;18.60;87.00
56046;DHT22;41913;51.030;3.706;2023-04-24T07:54:20;18.60;87.00
56046;DHT22;41913;51.030;3.706;2023-04-24T07:56:45;18.60;86.90
56046;DHT22;41913;51.030;3.706;2023-04-24T07:59:12;18.60;86.80
56046;DHT22;41913;51.030;3.706;2023-04-24T08:01:38;18.50;86.70
56046;DHT22;41913;51.030;3.706;2023-04-24T08:04:05;18.50;86.60
56046;DHT22;41913;51.030;3.706;2023-04-24T08:06:31;18.50;86.60
56046;DHT22;41913;51.030;3.706;2023-04-24T08:08:57;18.60;86.60
56046;DHT22;41913;51.030;3.706;2023-04-24T08:11:24;18.60;86.50
56046;DHT22;41913;51.030;3.706;2023-04-24T08:13:50;18.50;86.40
56046;DHT22;41913;51.030;3.706;2023-04-24T08:16:16;18.50;86.30
56046;DHT22;41913;51.030;3.706;2023-04-24T08:18:41;18.50;86.20
56046;DHT22;41913;51.030;3.706;2023-04-24T08:21:07;18.50;86.10
56046;DHT22;41913;51.030;3.706;2023-04-24T08:23:33;18.50;86.10
56046;DHT22;41913;51.030;3.706;2023-04-24T08:25:59;18.50;86.00
56046;DHT22;41913;51.030;3.706;2023-04-24T08:28:25;18.50;86.00
56046;DHT22;41913;51.030;3.706;2023-04-24T08:30:51;18.50;85.90
56046;DHT22;41913;51.030;3.706;2023-04-24T08:33:21;18.50;85.90
56046;DHT22;41913;51.030;3.706;2023-04-24T08:35:47;18.50;85.80
56046;DHT22;41913;51.030;3.706;2023-04-24T08:38:13;18.50;85.80
56046;DHT22;41913;51.030;3.706;2023-04-24T08:40:38;18.50;85.70
56046;DHT22;41913;51.030;3.706;2023-04-24T08:43:05;18.50;85.70
56046;DHT22;41913;51.030;3.706;2023-04-24T08:45:32;18.50;85.60
56046;DHT22;41913;51.030;3.706;2023-04-24T08:47:58;18.50;85.60
56046;DHT22;41913;51.030;3.706;2023-04-24T08:50:25;18.50;86.10
56046;DHT22;41913;51.030;3.706;2023-04-24T08:52:52;18.50;85.50
56046;DHT22;41913;51.030;3.706;2023-04-24T08:55:20;18.50;85.50
56046;DHT22;41913;51.030;3.706;2023-04-24T08:57:51;18.50;85.40
56046;DHT22;41913;51.030;3.706;2023-04-24T09:00:20;18.50;85.30
56046;DHT22;41913;51.030;3.706;2023-04-24T09:02:48;18.50;85.30
56046;DHT22;41913;51.030;3.706;2023-04-24T09:05:16;18.50;85.30
56046;DHT22;41913;51.030;3.706;2023-04-24T09:07:45;18.50;85.20
56046;DHT22;41913;51.030;3.706;2023-04-24T09:10:11;18.50;85.20
56046;DHT22;41913;51.030;3.706;2023-04-24T09:12:38;18.50;85.10
56046;DHT22;41913;51.030;3.706;2023-04-24T09:15:04;18.50;85.10
56046;DHT22;41913;51.030;3.706;2023-04-24T09:17:30;18.50;85.00
56046;DHT22;41913;51.030;3.706;2023-04-24T09:19:56;18.50;85.00
56046;DHT22;41913;51.030;3.706;2023-04-24T09:22:22;18.40;84.90
56046;DHT22;41913;51.030;3.706;2023-04-24T09:24:48;18.50;84.90
56046;DHT22;41913;51.030;3.706;2023-04-24T09:27:24;18.50;84.80
56046;DHT22;41913;51.030;3.706;2023-04-24T09:29:56;18.40;84.70
56046;DHT22;41913;51.030;3.706;2023-04-24T09:32:23;18.50;84.70
56046;DHT22;41913;51.030;3.706;2023-04-24T09:35:14;18.50;84.60
56046;DHT22;41913;51.030;3.706;2023-04-24T09:37:45;18.40;84.50
56046;DHT22;41913;51.030;3.706;2023-04-24T09:40:19;18.40;84.50
56046;DHT22;41913;51.030;3.706;2023-04-24T09:42:53;18.40;84.40
56046;DHT22;41913;51.030;3.706;2023-04-24T09:45:20;18.40;84.40
56046;DHT22;41913;51.030;3.706;2023-04-24T09:47:45;18.40;84.40
56046;DHT22;41913;51.030;3.706;2023-04-24T09:50:13;18.40;84.30
56046;DHT22;41913;51.030;3.706;2023-04-24T09:52:41;18.40;84.30
56046;DHT22;41913;51.030;3.706;2023-04-24T09:55:20;18.40;84.30
56046;DHT22;41913;51.030;3.706;2023-04-24T09:57:53;18.40;84.20
56046;DHT22;41913;51.030;3.706;2023-04-24T10:00:24;18.40;84.20
56046;DHT22;41913;51.030;3.706;2023-04-24T10:02:55;18.40;84.20
56046;DHT22;41913;51.030;3.706;2023-04-24T10:05:44;18.40;84.10
56046;DHT22;41913;51.030;3.706;2023-04-24T10:08:12;18.40;84.10
56046;DHT22;41913;51.030;3.706;2023-04-24T10:10:43;18.40;84.10
56046;DHT22;41913;51.030;3.706;2023-04-24T10:13:10;18.40;84.00
56046;DHT22;41913;51.030;3.706;2023-04-24T10:15:37;18.40;84.00
56046;DHT22;41913;51.030;3.706;2023-04-24T10:18:05;18.40;84.00
56046;DHT22;41913;51.030;3.706;2023-04-24T10:20:32;18.40;84.00
56046;DHT22;41913;51.030;3.706;2023-04-24T10:22:59;18.40;84.00
56046;DHT22;41913;51.030;3.706;2023-04-24T10:25:30;18.40;83.90
56046;DHT22;41913;51.030;3.706;2023-04-24T10:27:57;18.40;83.90
56046;DHT22;41913;51.030;3.706;2023-04-24T10:30:26;18.40;83.80
56046;DHT22;41913;51.030;3.706;2023-04-24T10:32:52;18.40;83.80
56046;DHT22;41913;51.030;3.706;2023-04-24T10:35:18;18.40;83.80
56046;DHT22;41913;51.030;3.706;2023-04-24T10:37:59;18.40;83.80
56046;DHT22;41913;51.030;3.706;2023-04-24T10:40:36;18.40;83.70
56046;DHT22;41913;51.030;3.706;2023-04-24T10:43:05;18.40;83.60
56046;DHT22;41913;51.030;3.706;2023-04-24T10:45:34;18.40;83.60
56046;DHT22;41913;51.030;3.706;2023-04-24T10:48:08;18.40;83.60
56046;DHT22;41913;51.030;3.706;2023-04-24T10:50:46;18.40;83.60
56046;DHT22;41913;51.030;3.706;2023-04-24T10:53:20;18.30;83.50
56046;DHT22;41913;51.030;3.706;2023-04-24T10:55:51;18.40;83.50
56046;DHT22;41913;51.030;3.706;2023-04-24T10:58:22;18.40;83.50
56046;DHT22;41913;51.030;3.706;2023-04-24T11:00:58;18.40;83.50
56046;DHT22;41913;51.030;3.706;2023-04-24T11:03:27;18.40;83.50
56046;DHT22;41913;51.030;3.706;2023-04-24T11:06:01;18.40;83.40
56046;DHT22;41913;51.030;3.706;2023-04-24T11:13:27;18.40;83.40
56046;DHT22;41913;51.030;3.706;2023-04-24T11:16:31;18.30;83.30
56046;DHT22;41913;51.030;3.706;2023-04-24T11:21:48;18.30;83.30
56046;DHT22;41913;51.030;3.706;2023-04-24T11:26:58;18.30;83.40
56046;DHT22;41913;51.030;3.706;2023-04-24T11:29:45;18.40;83.50
56046;DHT22;41913;51.030;3.706;2023-04-24T11:35:00;18.30;83.30
56046;DHT22;41913;51.030;3.706;2023-04-24T11:37:28;18.30;83.30
56046;DHT22;41913;51.030;3.706;2023-04-24T11:39:56;18.40;83.40
56046;DHT22;41913;51.030;3.706;2023-04-24T11:42:23;18.40;83.30
56046;DHT22;41913;51.030;3.706;2023-04-24T11:44:49;18.40;83.30
56046;DHT22;41913;51.030;3.706;2023-04-24T11:47:15;18.40;83.30
56046;DHT22;41913;51.030;3.706;2023-04-24T11:49:41;18.40;83.30
56046;DHT22;41913;51.030;3.706;2023-04-24T11:52:07;18.40;83.30
56046;DHT22;41913;51.030;3.706;2023-04-24T11:54:32;18.40;83.30
56046;DHT22;41913;51.030;3.706;2023-04-24T11:57:04;18.40;83.30
56046;DHT22;41913;51.030;3.706;2023-04-24T11:59:35;18.40;83.20
56046;DHT22;41913;51.030;3.706;2023-04-24T12:02:02;18.40;83.20
56046;DHT22;41913;51.030;3.706;2023-04-24T12:04:38;18.40;83.20
56046;DHT22;41913;51.030;3.706;2023-04-24T12:07:05;18.30;83.10
56046;DHT22;41913;51.030;3.706;2023-04-24T12:09:41;18.40;83.20
56046;DHT22;41913;51.030;3.706;2023-04-24T12:12:08;18.40;83.20
56046;DHT22;41913;51.030;3.706;2023-04-24T12:14:48;18.40;83.10
56046;DHT22;41913;51.030;3.706;2023-04-24T12:17:15;18.30;83.10
56046;DHT22;41913;51.030;3.706;2023-04-24T12:19:47;18.40;83.10
56046;DHT22;41913;51.030;3.706;2023-04-24T12:22:14;18.40;83.10
56046;DHT22;41913;51.030;3.706;2023-04-24T12:24:59;18.40;83.10
56046;DHT22;41913;51.030;3.706;2023-04-24T12:27:28;18.40;83.10
56046;DHT22;41913;51.030;3.706;2023-04-24T12:29:56;18.40;83.10
56046;DHT22;41913;51.030;3.706;2023-04-24T12:32:22;18.30;83.10
56046;DHT22;41913;51.030;3.706;2023-04-24T12:34:49;18.30;83.10
56046;DHT22;41913;51.030;3.706;2023-04-24T12:37:16;18.40;83.20
56046;DHT22;41913;51.030;3.706;2023-04-24T12:42:34;18.40;83.30
56046;DHT22;41913;51.030;3.706;2023-04-24T12:45:03;18.30;83.20
56046;DHT22;41913;51.030;3.706;2023-04-24T12:47:29;18.40;83.30
56046;DHT22;41913;51.030;3.706;2023-04-24T12:49:55;18.40;83.30
56046;DHT22;41913;51.030;3.706;2023-04-24T12:52:22;18.40;83.30
56046;DHT22;41913;51.030;3.706;2023-04-24T12:54:57;18.40;83.30
56046;DHT22;41913;51.030;3.706;2023-04-24T12:57:23;18.40;83.30
56046;DHT22;41913;51.030;3.706;2023-04-24T12:59:49;18.40;83.30
56046;DHT22;41913;51.030;3.706;2023-04-24T13:02:16;18.40;83.30
56046;DHT22;41913;51.030;3.706;2023-04-24T13:04:46;18.40;83.30
56046;DHT22;41913;51.030;3.706;2023-04-24T13:07:13;18.40;83.30
56046;DHT22;41913;51.030;3.706;2023-04-24T13:09:39;18.40;83.30
56046;DHT22;41913;51.030;3.706;2023-04-24T13:12:06;18.40;83.30
56046;DHT22;41913;51.030;3.706;2023-04-24T13:14:32;18.40;83.30
56046;DHT22;41913;51.030;3.706;2023-04-24T13:16:58;18.40;83.30
56046;DHT22;41913;51.030;3.706;2023-04-24T13:19:27;18.40;83.80
56046;DHT22;41913;51.030;3.706;2023-04-24T13:21:55;18.40;83.30
56046;DHT22;41913;51.030;3.706;2023-04-24T13:24:21;18.40;83.30
56046;DHT22;41913;51.030;3.706;2023-04-24T13:26:50;18.40;83.30
56046;DHT22;41913;51.030;3.706;2023-04-24T13:29:16;18.40;83.30
56046;DHT22;41913;51.030;3.706;2023-04-24T13:31:42;18.40;83.40
56046;DHT22;41913;51.030;3.706;2023-04-24T13:34:08;18.40;83.40
56046;DHT22;41913;51.030;3.706;2023-04-24T13:36:34;18.40;83.40
56046;DHT22;41913;51.030;3.706;2023-04-24T13:39:00;18.40;83.40
56046;DHT22;41913;51.030;3.706;2023-04-24T13:41:26;18.40;83.40
56046;DHT22;41913;51.030;3.706;2023-04-24T13:43:52;18.40;83.40
56046;DHT22;41913;51.030;3.706;2023-04-24T13:46:18;18.50;83.40
56046;DHT22;41913;51.030;3.706;2023-04-24T13:48:43;18.40;83.30
56046;DHT22;41913;51.030;3.706;2023-04-24T13:51:09;18.40;83.20
56046;DHT22;41913;51.030;3.706;2023-04-24T13:53:36;18.40;83.10
56046;DHT22;41913;51.030;3.706;2023-04-24T13:56:04;18.40;82.90
56046;DHT22;41913;51.030;3.706;2023-04-24T13:58:31;18.50;82.90
56046;DHT22;41913;51.030;3.706;2023-04-24T14:00:58;18.40;82.60
56046;DHT22;41913;51.030;3.706;2023-04-24T14:03:24;18.40;82.50
56046;DHT22;41913;51.030;3.706;2023-04-24T14:05:50;18.40;82.30
56046;DHT22;41913;51.030;3.706;2023-04-24T14:08:15;18.40;82.10
56046;DHT22;41913;51.030;3.706;2023-04-24T14:10:42;18.40;82.00
56046;DHT22;41913;51.030;3.706;2023-04-24T14:13:08;18.40;81.80
56046;DHT22;41913;51.030;3.706;2023-04-24T14:15:35;18.40;81.60
56046;DHT22;41913;51.030;3.706;2023-04-24T14:18:01;18.40;81.50
56046;DHT22;41913;51.030;3.706;2023-04-24T14:20:28;18.40;81.30
56046;DHT22;41913;51.030;3.706;2023-04-24T14:22:54;18.40;81.20
56046;DHT22;41913;51.030;3.706;2023-04-24T14:25:20;18.40;81.00
56046;DHT22;41913;51.030;3.706;2023-04-24T14:27:47;18.40;80.90
56046;DHT22;41913;51.030;3.706;2023-04-24T14:30:13;18.40;80.70
56046;DHT22;41913;51.030;3.706;2023-04-24T14:32:40;18.40;80.60
56046;DHT22;41913;51.030;3.706;2023-04-24T14:35:07;18.40;80.40
56046;DHT22;41913;51.030;3.706;2023-04-24T14:37:32;18.40;80.30
56046;DHT22;41913;51.030;3.706;2023-04-24T14:39:58;18.40;80.10
56046;DHT22;41913;51.030;3.706;2023-04-24T14:42:24;18.40;80.00
56046;DHT22;41913;51.030;3.706;2023-04-24T14:44:50;18.40;79.90
56046;DHT22;41913;51.030;3.706;2023-04-24T14:47:16;18.40;79.70
56046;DHT22;41913;51.030;3.706;2023-04-24T14:49:43;18.40;79.50
56046;DHT22;41913;51.030;3.706;2023-04-24T14:52:09;18.40;79.40
56046;DHT22;41913;51.030;3.706;2023-04-24T14:54:35;18.40;79.30
56046;DHT22;41913;51.030;3.706;2023-04-24T14:57:01;18.40;79.20
56046;DHT22;41913;51.030;3.706;2023-04-24T14:59:30;18.40;79.10
56046;DHT22;41913;51.030;3.706;2023-04-24T15:01:57;18.40;79.00
56046;DHT22;41913;51.030;3.706;2023-04-24T15:04:27;18.40;78.90
56046;DHT22;41913;51.030;3.706;2023-04-24T15:06:54;18.40;78.80
56046;DHT22;41913;51.030;3.706;2023-04-24T15:09:23;18.40;78.80
56046;DHT22;41913;51.030;3.706;2023-04-24T15:11:50;18.40;78.70
56046;DHT22;41913;51.030;3.706;2023-04-24T15:14:18;18.40;78.60
56046;DHT22;41913;51.030;3.706;2023-04-24T15:16:44;18.40;78.60
56046;DHT22;41913;51.030;3.706;2023-04-24T15:19:10;18.40;78.50
56046;DHT22;41913;51.030;3.706;2023-04-24T15:21:37;18.40;78.40
56046;DHT22;41913;51.030;3.706;2023-04-24T15:24:03;18.40;78.40
56046;DHT22;41913;51.030;3.706;2023-04-24T15:26:29;18.40;78.30
56046;DHT22;41913;51.030;3.706;2023-04-24T15:28:55;18.40;78.20
56046;DHT22;41913;51.030;3.706;2023-04-24T15:31:21;18.40;78.00
56046;DHT22;41913;51.030;3.706;2023-04-24T15:33:49;18.40;77.80
56046;DHT22;41913;51.030;3.706;2023-04-24T15:36:15;18.40;77.60
56046;DHT22;41913;51.030;3.706;2023-04-24T15:38:42;18.40;77.50
56046;DHT22;41913;51.030;3.706;2023-04-24T15:41:08;18.40;77.30
56046;DHT22;41913;51.030;3.706;2023-04-24T15:43:34;18.40;77.10
56046;DHT22;41913;51.030;3.706;2023-04-24T15:46:01;18.40;76.90